Impacts TAF Board
For situational awareness. Not to be used for flight planning purposes.
IDs:

KORD - Chicago/O'Hare Intl, IL, US

Issued at 0544 UTC 24 Mar 2019
Updated at 0725 UTC 24 Mar 2019
Potential Impact None Slight Moderate High
Time0651Z 24/08Z 24/09Z 24/10Z 24/11Z 24/12Z 24/13Z 24/14Z 24/15Z 24/16Z 24/17Z 24/18Z 24/19Z 24/20Z>>
Type OBS PRVL PRVL PRVL PRVL PRVL PRVL PRVL PRVL PRVL PRVL PRVL PRVL PRVL
VIS 10 >6 >6 >6 >6 >6 >6 >6 >6 >6 >6 >6 5 5
CIG 120 200 200 200 50 50 50 50 50 40 40 40 20 20
Cover OVC BKN BKN BKN OVC OVC OVC OVC OVC OVC OVC OVC OVC OVC
FltCat VFR VFR VFR VFR VFR VFR VFR VFR VFR VFR VFR VFR MVFR MVFR
WX -- -- -- -- -- -- -- -- -- VCSH VCSH VCSH -SHRA -SHRA
WDir 170 180 180 180 200 200 200 200 200 180 180 180 160 160
WSpd 5 6 6 6 5 5 5 5 5 7 7 7 6 6
WGst -- -- -- -- -- -- -- -- -- -- -- -- -- --
Raw TAF
KORD 240544Z 2406/2512 18006KT P6SM SCT100 BKN200
  FM241100 20005KT P6SM OVC050
  FM241600 18007KT P6SM VCSH SCT020 OVC040
  FM241900 16006KT 5SM -SHRA SCT010 OVC020
  FM242200 04013G20KT 4SM -RA BR SCT007 OVC010
  FM250300 03015G21KT 6SM BR OVC015
  FM250900 03017G24KT P6SM SCT060


Raw METAR
KORD 240651Z 17005KT 10SM BKN120 OVC200 06/M03 A3017 RMK AO2 SLP219 T00611033
KORD 240551Z 18006KT 10SM BKN130 OVC200 06/M03 A3019 RMK AO2 SLP226 T00611028 10094 20050 401171039 56006
KORD 240451Z 18003KT 10SM SCT130 BKN200 BKN250 06/M03 A3020 RMK AO2 SLP229 T00561028

METAR Board
Radar Display
Forecast Discussion
For situational awareness. Not to be used for flight planning purposes.